sensor_id;sensor_type;location;lat;lon;timestamp;P1;durP1;ratioP1;P2;durP2;ratioP2
21168;SDS011;10742;51.816;8.662;2024-02-28T00:02:04;27.80;;;11.73;;
21168;SDS011;10742;51.816;8.662;2024-02-28T00:05:25;26.13;;;10.43;;
21168;SDS011;10742;51.816;8.662;2024-02-28T00:08:47;28.17;;;10.20;;
21168;SDS011;10742;51.816;8.662;2024-02-28T00:12:08;26.30;;;10.33;;
21168;SDS011;10742;51.816;8.662;2024-02-28T00:15:30;29.13;;;11.13;;
21168;SDS011;10742;51.816;8.662;2024-02-28T00:18:52;26.30;;;10.90;;
21168;SDS011;10742;51.816;8.662;2024-02-28T00:22:13;27.43;;;11.60;;
21168;SDS011;10742;51.816;8.662;2024-02-28T00:25:34;26.37;;;10.37;;
21168;SDS011;10742;51.816;8.662;2024-02-28T00:28:56;27.83;;;11.67;;
21168;SDS011;10742;51.816;8.662;2024-02-28T00:32:17;27.20;;;11.07;;
21168;SDS011;10742;51.816;8.662;2024-02-28T00:35:39;27.57;;;11.23;;
21168;SDS011;10742;51.816;8.662;2024-02-28T00:39:01;28.97;;;11.87;;
21168;SDS011;10742;51.816;8.662;2024-02-28T00:42:24;30.97;;;12.40;;
21168;SDS011;10742;51.816;8.662;2024-02-28T00:45:46;32.97;;;12.07;;
21168;SDS011;10742;51.816;8.662;2024-02-28T00:49:07;30.43;;;11.33;;
21168;SDS011;10742;51.816;8.662;2024-02-28T00:52:29;26.97;;;11.67;;
21168;SDS011;10742;51.816;8.662;2024-02-28T00:55:51;29.20;;;10.97;;
21168;SDS011;10742;51.816;8.662;2024-02-28T00:59:12;28.37;;;11.70;;
21168;SDS011;10742;51.816;8.662;2024-02-28T01:02:34;26.40;;;11.13;;
21168;SDS011;10742;51.816;8.662;2024-02-28T01:05:55;28.13;;;11.30;;
21168;SDS011;10742;51.816;8.662;2024-02-28T01:09:17;27.00;;;10.87;;
21168;SDS011;10742;51.816;8.662;2024-02-28T01:12:39;29.90;;;11.43;;
21168;SDS011;10742;51.816;8.662;2024-02-28T01:16:01;30.83;;;11.23;;
21168;SDS011;10742;51.816;8.662;2024-02-28T01:19:22;27.00;;;10.63;;
21168;SDS011;10742;51.816;8.662;2024-02-28T01:22:43;29.23;;;10.97;;
21168;SDS011;10742;51.816;8.662;2024-02-28T01:26:05;31.67;;;11.83;;
21168;SDS011;10742;51.816;8.662;2024-02-28T01:29:26;27.57;;;11.00;;
21168;SDS011;10742;51.816;8.662;2024-02-28T01:32:48;27.47;;;10.73;;
21168;SDS011;10742;51.816;8.662;2024-02-28T01:36:10;27.53;;;10.87;;
21168;SDS011;10742;51.816;8.662;2024-02-28T01:39:32;28.03;;;10.53;;
21168;SDS011;10742;51.816;8.662;2024-02-28T01:42:53;28.57;;;11.07;;
21168;SDS011;10742;51.816;8.662;2024-02-28T01:46:25;27.27;;;10.97;;
21168;SDS011;10742;51.816;8.662;2024-02-28T01:49:47;28.80;;;11.07;;
21168;SDS011;10742;51.816;8.662;2024-02-28T01:53:09;29.30;;;11.70;;
21168;SDS011;10742;51.816;8.662;2024-02-28T01:56:31;28.73;;;11.97;;
21168;SDS011;10742;51.816;8.662;2024-02-28T01:59:53;28.97;;;11.83;;
21168;SDS011;10742;51.816;8.662;2024-02-28T02:03:16;29.53;;;12.27;;
21168;SDS011;10742;51.816;8.662;2024-02-28T02:06:37;32.23;;;12.27;;
21168;SDS011;10742;51.816;8.662;2024-02-28T02:10:02;32.97;;;13.47;;
21168;SDS011;10742;51.816;8.662;2024-02-28T02:13:28;29.90;;;11.90;;
21168;SDS011;10742;51.816;8.662;2024-02-28T02:16:49;30.07;;;12.53;;
21168;SDS011;10742;51.816;8.662;2024-02-28T02:20:11;29.53;;;12.67;;
21168;SDS011;10742;51.816;8.662;2024-02-28T02:23:35;31.93;;;11.90;;
21168;SDS011;10742;51.816;8.662;2024-02-28T02:27:00;29.63;;;11.77;;
21168;SDS011;10742;51.816;8.662;2024-02-28T02:30:23;30.63;;;12.50;;
21168;SDS011;10742;51.816;8.662;2024-02-28T02:33:44;31.87;;;12.97;;
21168;SDS011;10742;51.816;8.662;2024-02-28T02:37:06;31.97;;;13.03;;
21168;SDS011;10742;51.816;8.662;2024-02-28T02:40:29;32.77;;;12.73;;
21168;SDS011;10742;51.816;8.662;2024-02-28T02:43:50;32.60;;;12.70;;
21168;SDS011;10742;51.816;8.662;2024-02-28T02:47:12;39.70;;;15.10;;
21168;SDS011;10742;51.816;8.662;2024-02-28T02:50:33;40.73;;;15.70;;
21168;SDS011;10742;51.816;8.662;2024-02-28T02:53:54;41.00;;;16.27;;
21168;SDS011;10742;51.816;8.662;2024-02-28T02:57:15;41.03;;;16.00;;
21168;SDS011;10742;51.816;8.662;2024-02-28T03:00:36;42.13;;;15.07;;
21168;SDS011;10742;51.816;8.662;2024-02-28T03:03:58;46.83;;;16.93;;
21168;SDS011;10742;51.816;8.662;2024-02-28T03:07:19;36.97;;;15.03;;
21168;SDS011;10742;51.816;8.662;2024-02-28T03:10:40;41.23;;;15.87;;
21168;SDS011;10742;51.816;8.662;2024-02-28T03:14:02;47.63;;;17.93;;
21168;SDS011;10742;51.816;8.662;2024-02-28T03:17:23;51.47;;;18.67;;
21168;SDS011;10742;51.816;8.662;2024-02-28T03:20:45;59.07;;;17.00;;
21168;SDS011;10742;51.816;8.662;2024-02-28T03:24:06;45.13;;;17.47;;
21168;SDS011;10742;51.816;8.662;2024-02-28T03:27:28;47.90;;;18.70;;
21168;SDS011;10742;51.816;8.662;2024-02-28T03:30:49;58.80;;;18.30;;
21168;SDS011;10742;51.816;8.662;2024-02-28T03:34:10;54.97;;;17.80;;
21168;SDS011;10742;51.816;8.662;2024-02-28T03:37:32;60.77;;;18.63;;
21168;SDS011;10742;51.816;8.662;2024-02-28T03:40:53;60.63;;;17.77;;
21168;SDS011;10742;51.816;8.662;2024-02-28T03:44:14;76.50;;;19.13;;
21168;SDS011;10742;51.816;8.662;2024-02-28T03:47:35;186.50;;;19.03;;
21168;SDS011;10742;51.816;8.662;2024-02-28T03:50:57;172.63;;;18.30;;
21168;SDS011;10742;51.816;8.662;2024-02-28T03:54:18;110.43;;;18.03;;
21168;SDS011;10742;51.816;8.662;2024-02-28T03:57:39;69.53;;;15.80;;
21168;SDS011;10742;51.816;8.662;2024-02-28T04:01:01;92.30;;;17.93;;
21168;SDS011;10742;51.816;8.662;2024-02-28T04:04:23;46.57;;;17.27;;
21168;SDS011;10742;51.816;8.662;2024-02-28T04:07:44;152.87;;;17.43;;
21168;SDS011;10742;51.816;8.662;2024-02-28T04:11:05;59.23;;;15.37;;
21168;SDS011;10742;51.816;8.662;2024-02-28T04:14:26;58.10;;;15.03;;
21168;SDS011;10742;51.816;8.662;2024-02-28T04:17:47;43.80;;;15.50;;
21168;SDS011;10742;51.816;8.662;2024-02-28T04:21:08;205.07;;;19.60;;
21168;SDS011;10742;51.816;8.662;2024-02-28T04:24:30;169.50;;;18.47;;
21168;SDS011;10742;51.816;8.662;2024-02-28T04:27:52;109.50;;;17.50;;
21168;SDS011;10742;51.816;8.662;2024-02-28T04:31:13;90.77;;;15.40;;
21168;SDS011;10742;51.816;8.662;2024-02-28T04:34:35;116.60;;;16.17;;
21168;SDS011;10742;51.816;8.662;2024-02-28T04:37:57;119.23;;;17.07;;
21168;SDS011;10742;51.816;8.662;2024-02-28T04:41:18;206.03;;;17.37;;
21168;SDS011;10742;51.816;8.662;2024-02-28T04:44:39;66.10;;;14.97;;
21168;SDS011;10742;51.816;8.662;2024-02-28T04:48:00;47.93;;;15.33;;
21168;SDS011;10742;51.816;8.662;2024-02-28T04:51:21;61.67;;;14.97;;
21168;SDS011;10742;51.816;8.662;2024-02-28T04:54:43;70.47;;;16.80;;
21168;SDS011;10742;51.816;8.662;2024-02-28T04:58:04;119.73;;;17.73;;
21168;SDS011;10742;51.816;8.662;2024-02-28T05:01:25;141.70;;;16.87;;
21168;SDS011;10742;51.816;8.662;2024-02-28T05:04:49;214.53;;;19.83;;
21168;SDS011;10742;51.816;8.662;2024-02-28T05:08:10;120.73;;;17.17;;
21168;SDS011;10742;51.816;8.662;2024-02-28T05:11:31;155.80;;;17.23;;
21168;SDS011;10742;51.816;8.662;2024-02-28T05:14:53;43.63;;;15.60;;
21168;SDS011;10742;51.816;8.662;2024-02-28T05:18:14;79.53;;;16.37;;
21168;SDS011;10742;51.816;8.662;2024-02-28T05:21:40;38.40;;;14.73;;
21168;SDS011;10742;51.816;8.662;2024-02-28T05:25:02;43.47;;;15.43;;
21168;SDS011;10742;51.816;8.662;2024-02-28T05:28:24;112.10;;;17.50;;
21168;SDS011;10742;51.816;8.662;2024-02-28T05:31:45;85.33;;;16.43;;
21168;SDS011;10742;51.816;8.662;2024-02-28T05:35:07;59.90;;;16.53;;
21168;SDS011;10742;51.816;8.662;2024-02-28T05:38:28;57.40;;;15.93;;
21168;SDS011;10742;51.816;8.662;2024-02-28T05:41:49;47.37;;;16.87;;
21168;SDS011;10742;51.816;8.662;2024-02-28T05:45:11;54.33;;;15.57;;
21168;SDS011;10742;51.816;8.662;2024-02-28T05:48:32;86.27;;;16.47;;
21168;SDS011;10742;51.816;8.662;2024-02-28T05:51:54;98.63;;;17.30;;
21168;SDS011;10742;51.816;8.662;2024-02-28T05:55:15;67.07;;;15.97;;
21168;SDS011;10742;51.816;8.662;2024-02-28T05:58:36;64.70;;;15.73;;
21168;SDS011;10742;51.816;8.662;2024-02-28T06:01:57;58.90;;;15.57;;
21168;SDS011;10742;51.816;8.662;2024-02-28T06:05:19;75.40;;;15.60;;
21168;SDS011;10742;51.816;8.662;2024-02-28T06:08:40;50.07;;;15.03;;
21168;SDS011;10742;51.816;8.662;2024-02-28T06:12:01;58.47;;;15.87;;
21168;SDS011;10742;51.816;8.662;2024-02-28T06:15:23;47.07;;;15.83;;
21168;SDS011;10742;51.816;8.662;2024-02-28T06:18:44;46.07;;;14.90;;
21168;SDS011;10742;51.816;8.662;2024-02-28T06:22:06;60.60;;;15.27;;
21168;SDS011;10742;51.816;8.662;2024-02-28T06:25:28;45.17;;;15.77;;
21168;SDS011;10742;51.816;8.662;2024-02-28T06:28:49;56.13;;;15.03;;
21168;SDS011;10742;51.816;8.662;2024-02-28T06:32:12;47.97;;;15.87;;
21168;SDS011;10742;51.816;8.662;2024-02-28T06:35:33;42.80;;;15.20;;
21168;SDS011;10742;51.816;8.662;2024-02-28T06:38:55;53.73;;;14.90;;
21168;SDS011;10742;51.816;8.662;2024-02-28T06:42:16;51.50;;;16.47;;
21168;SDS011;10742;51.816;8.662;2024-02-28T06:45:37;42.73;;;15.90;;
21168;SDS011;10742;51.816;8.662;2024-02-28T06:48:59;44.23;;;15.87;;
21168;SDS011;10742;51.816;8.662;2024-02-28T06:52:20;54.23;;;15.93;;
21168;SDS011;10742;51.816;8.662;2024-02-28T06:55:41;46.40;;;15.53;;
21168;SDS011;10742;51.816;8.662;2024-02-28T06:59:03;84.57;;;15.57;;
21168;SDS011;10742;51.816;8.662;2024-02-28T07:02:24;47.50;;;15.97;;
21168;SDS011;10742;51.816;8.662;2024-02-28T07:05:46;47.67;;;16.47;;
21168;SDS011;10742;51.816;8.662;2024-02-28T07:09:07;78.50;;;16.33;;
21168;SDS011;10742;51.816;8.662;2024-02-28T07:12:30;61.17;;;16.90;;
21168;SDS011;10742;51.816;8.662;2024-02-28T07:15:52;50.83;;;17.03;;
21168;SDS011;10742;51.816;8.662;2024-02-28T07:19:15;48.27;;;16.23;;
21168;SDS011;10742;51.816;8.662;2024-02-28T07:22:36;80.57;;;16.37;;
21168;SDS011;10742;51.816;8.662;2024-02-28T07:25:57;84.53;;;16.20;;
21168;SDS011;10742;51.816;8.662;2024-02-28T07:29:19;50.53;;;15.07;;
21168;SDS011;10742;51.816;8.662;2024-02-28T07:32:40;123.40;;;17.97;;
21168;SDS011;10742;51.816;8.662;2024-02-28T07:36:01;50.70;;;16.07;;
21168;SDS011;10742;51.816;8.662;2024-02-28T07:39:23;70.60;;;15.63;;
21168;SDS011;10742;51.816;8.662;2024-02-28T07:42:45;44.90;;;16.33;;
21168;SDS011;10742;51.816;8.662;2024-02-28T07:46:07;79.00;;;17.10;;
21168;SDS011;10742;51.816;8.662;2024-02-28T07:49:29;53.80;;;17.97;;
21168;SDS011;10742;51.816;8.662;2024-02-28T07:52:50;74.67;;;18.27;;
21168;SDS011;10742;51.816;8.662;2024-02-28T07:56:17;56.07;;;19.00;;
21168;SDS011;10742;51.816;8.662;2024-02-28T07:59:40;64.20;;;18.70;;
21168;SDS011;10742;51.816;8.662;2024-02-28T08:03:04;56.43;;;17.83;;
21168;SDS011;10742;51.816;8.662;2024-02-28T08:06:25;51.63;;;18.67;;
21168;SDS011;10742;51.816;8.662;2024-02-28T08:09:46;104.00;;;22.40;;
21168;SDS011;10742;51.816;8.662;2024-02-28T08:13:08;103.90;;;20.83;;
21168;SDS011;10742;51.816;8.662;2024-02-28T08:16:29;80.83;;;19.63;;
21168;SDS011;10742;51.816;8.662;2024-02-28T08:19:51;56.77;;;18.60;;
21168;SDS011;10742;51.816;8.662;2024-02-28T08:23:12;61.33;;;18.60;;
21168;SDS011;10742;51.816;8.662;2024-02-28T08:26:34;74.57;;;19.20;;
21168;SDS011;10742;51.816;8.662;2024-02-28T08:29:56;52.97;;;18.73;;
21168;SDS011;10742;51.816;8.662;2024-02-28T08:33:17;69.73;;;17.60;;
21168;SDS011;10742;51.816;8.662;2024-02-28T08:36:39;59.90;;;18.70;;
21168;SDS011;10742;51.816;8.662;2024-02-28T08:40:00;49.80;;;18.00;;
21168;SDS011;10742;51.816;8.662;2024-02-28T08:43:21;46.57;;;18.27;;
21168;SDS011;10742;51.816;8.662;2024-02-28T08:46:42;47.67;;;17.33;;
21168;SDS011;10742;51.816;8.662;2024-02-28T08:50:04;50.57;;;18.53;;
21168;SDS011;10742;51.816;8.662;2024-02-28T08:53:26;46.20;;;18.20;;
21168;SDS011;10742;51.816;8.662;2024-02-28T08:56:47;54.10;;;18.83;;
21168;SDS011;10742;51.816;8.662;2024-02-28T09:00:09;49.43;;;18.90;;
21168;SDS011;10742;51.816;8.662;2024-02-28T09:03:31;48.60;;;19.20;;
21168;SDS011;10742;51.816;8.662;2024-02-28T09:06:53;51.03;;;19.30;;
21168;SDS011;10742;51.816;8.662;2024-02-28T09:10:14;51.40;;;19.13;;
21168;SDS011;10742;51.816;8.662;2024-02-28T09:13:36;48.73;;;18.97;;
21168;SDS011;10742;51.816;8.662;2024-02-28T09:16:57;50.50;;;18.70;;
21168;SDS011;10742;51.816;8.662;2024-02-28T09:20:23;50.93;;;18.97;;
21168;SDS011;10742;51.816;8.662;2024-02-28T09:23:44;52.60;;;20.17;;
21168;SDS011;10742;51.816;8.662;2024-02-28T09:27:06;50.30;;;19.30;;
21168;SDS011;10742;51.816;8.662;2024-02-28T09:30:27;56.50;;;20.70;;
21168;SDS011;10742;51.816;8.662;2024-02-28T09:33:49;51.40;;;20.50;;
21168;SDS011;10742;51.816;8.662;2024-02-28T09:37:11;55.10;;;21.27;;
21168;SDS011;10742;51.816;8.662;2024-02-28T09:40:32;59.03;;;21.70;;
21168;SDS011;10742;51.816;8.662;2024-02-28T09:43:53;58.00;;;22.00;;
21168;SDS011;10742;51.816;8.662;2024-02-28T09:47:15;57.90;;;21.83;;
21168;SDS011;10742;51.816;8.662;2024-02-28T09:50:37;59.27;;;21.90;;
21168;SDS011;10742;51.816;8.662;2024-02-28T09:53:59;60.30;;;22.57;;
21168;SDS011;10742;51.816;8.662;2024-02-28T09:57:23;58.17;;;22.77;;
21168;SDS011;10742;51.816;8.662;2024-02-28T10:00:48;52.97;;;21.23;;
21168;SDS011;10742;51.816;8.662;2024-02-28T10:04:10;58.63;;;23.23;;
21168;SDS011;10742;51.816;8.662;2024-02-28T10:07:35;56.87;;;22.67;;
21168;SDS011;10742;51.816;8.662;2024-02-28T10:10:56;62.63;;;24.13;;
21168;SDS011;10742;51.816;8.662;2024-02-28T10:14:18;58.20;;;23.47;;
21168;SDS011;10742;51.816;8.662;2024-02-28T10:17:40;55.13;;;21.97;;
21168;SDS011;10742;51.816;8.662;2024-02-28T10:21:01;59.27;;;24.17;;
21168;SDS011;10742;51.816;8.662;2024-02-28T10:24:24;56.03;;;24.33;;
21168;SDS011;10742;51.816;8.662;2024-02-28T10:27:46;59.10;;;24.23;;
21168;SDS011;10742;51.816;8.662;2024-02-28T10:31:08;64.63;;;24.13;;
21168;SDS011;10742;51.816;8.662;2024-02-28T10:34:29;59.13;;;24.17;;
21168;SDS011;10742;51.816;8.662;2024-02-28T10:37:52;57.37;;;24.27;;
21168;SDS011;10742;51.816;8.662;2024-02-28T10:41:14;61.93;;;25.40;;
21168;SDS011;10742;51.816;8.662;2024-02-28T10:44:36;61.10;;;24.43;;
21168;SDS011;10742;51.816;8.662;2024-02-28T10:47:59;54.17;;;23.77;;
21168;SDS011;10742;51.816;8.662;2024-02-28T10:51:22;56.20;;;24.17;;
21168;SDS011;10742;51.816;8.662;2024-02-28T10:54:50;58.63;;;24.40;;
21168;SDS011;10742;51.816;8.662;2024-02-28T10:58:19;65.70;;;25.83;;
21168;SDS011;10742;51.816;8.662;2024-02-28T11:01:45;61.50;;;26.93;;
21168;SDS011;10742;51.816;8.662;2024-02-28T11:05:07;62.13;;;26.47;;
21168;SDS011;10742;51.816;8.662;2024-02-28T11:08:28;61.10;;;26.20;;
21168;SDS011;10742;51.816;8.662;2024-02-28T11:11:50;60.17;;;26.07;;
21168;SDS011;10742;51.816;8.662;2024-02-28T11:15:16;62.07;;;27.23;;
21168;SDS011;10742;51.816;8.662;2024-02-28T11:18:47;59.57;;;26.20;;
21168;SDS011;10742;51.816;8.662;2024-02-28T11:22:12;69.67;;;29.17;;
21168;SDS011;10742;51.816;8.662;2024-02-28T11:25:33;61.03;;;27.50;;
21168;SDS011;10742;51.816;8.662;2024-02-28T11:28:54;62.17;;;28.70;;
21168;SDS011;10742;51.816;8.662;2024-02-28T11:32:16;65.73;;;28.30;;
21168;SDS011;10742;51.816;8.662;2024-02-28T11:35:37;63.23;;;28.03;;
21168;SDS011;10742;51.816;8.662;2024-02-28T11:38:59;60.87;;;27.53;;
21168;SDS011;10742;51.816;8.662;2024-02-28T11:42:21;62.17;;;28.07;;
21168;SDS011;10742;51.816;8.662;2024-02-28T11:45:42;63.10;;;27.13;;
21168;SDS011;10742;51.816;8.662;2024-02-28T11:49:04;59.97;;;27.27;;
21168;SDS011;10742;51.816;8.662;2024-02-28T11:52:26;57.80;;;26.77;;
21168;SDS011;10742;51.816;8.662;2024-02-28T11:55:48;53.97;;;26.03;;
21168;SDS011;10742;51.816;8.662;2024-02-28T11:59:13;61.43;;;27.57;;
21168;SDS011;10742;51.816;8.662;2024-02-28T12:02:34;55.70;;;25.67;;
21168;SDS011;10742;51.816;8.662;2024-02-28T12:05:56;53.53;;;25.10;;
21168;SDS011;10742;51.816;8.662;2024-02-28T12:09:18;56.13;;;26.00;;
21168;SDS011;10742;51.816;8.662;2024-02-28T12:12:41;54.23;;;25.27;;
21168;SDS011;10742;51.816;8.662;2024-02-28T12:16:02;52.73;;;24.33;;
21168;SDS011;10742;51.816;8.662;2024-02-28T12:19:23;54.70;;;25.10;;
21168;SDS011;10742;51.816;8.662;2024-02-28T12:22:45;50.80;;;24.70;;
21168;SDS011;10742;51.816;8.662;2024-02-28T12:26:06;51.37;;;24.13;;
21168;SDS011;10742;51.816;8.662;2024-02-28T12:29:27;50.47;;;24.97;;
21168;SDS011;10742;51.816;8.662;2024-02-28T12:32:48;48.03;;;22.97;;
21168;SDS011;10742;51.816;8.662;2024-02-28T12:36:10;46.20;;;22.87;;
21168;SDS011;10742;51.816;8.662;2024-02-28T12:39:31;49.87;;;23.60;;
21168;SDS011;10742;51.816;8.662;2024-02-28T12:42:55;49.17;;;23.90;;
21168;SDS011;10742;51.816;8.662;2024-02-28T12:46:17;46.40;;;22.57;;
21168;SDS011;10742;51.816;8.662;2024-02-28T12:49:38;48.80;;;23.20;;
21168;SDS011;10742;51.816;8.662;2024-02-28T12:53:00;47.30;;;22.20;;
21168;SDS011;10742;51.816;8.662;2024-02-28T12:56:22;48.27;;;21.03;;
21168;SDS011;10742;51.816;8.662;2024-02-28T12:59:43;47.90;;;22.03;;
21168;SDS011;10742;51.816;8.662;2024-02-28T13:03:05;43.57;;;21.63;;
21168;SDS011;10742;51.816;8.662;2024-02-28T13:06:26;47.83;;;22.30;;
21168;SDS011;10742;51.816;8.662;2024-02-28T13:09:48;48.30;;;23.13;;
21168;SDS011;10742;51.816;8.662;2024-02-28T13:13:09;49.63;;;22.60;;
21168;SDS011;10742;51.816;8.662;2024-02-28T13:16:32;46.87;;;21.40;;
21168;SDS011;10742;51.816;8.662;2024-02-28T13:19:54;47.30;;;22.07;;
21168;SDS011;10742;51.816;8.662;2024-02-28T13:23:15;46.90;;;21.60;;
21168;SDS011;10742;51.816;8.662;2024-02-28T13:26:36;47.90;;;21.60;;
21168;SDS011;10742;51.816;8.662;2024-02-28T13:29:58;42.83;;;20.07;;
21168;SDS011;10742;51.816;8.662;2024-02-28T13:33:19;45.60;;;20.57;;
21168;SDS011;10742;51.816;8.662;2024-02-28T13:36:40;44.27;;;19.50;;
21168;SDS011;10742;51.816;8.662;2024-02-28T13:40:04;42.63;;;20.07;;
21168;SDS011;10742;51.816;8.662;2024-02-28T13:43:27;42.13;;;20.83;;
21168;SDS011;10742;51.816;8.662;2024-02-28T13:46:49;41.77;;;20.27;;
21168;SDS011;10742;51.816;8.662;2024-02-28T13:50:12;44.10;;;21.33;;
21168;SDS011;10742;51.816;8.662;2024-02-28T13:53:34;45.10;;;21.57;;
21168;SDS011;10742;51.816;8.662;2024-02-28T13:56:56;43.43;;;20.00;;
21168;SDS011;10742;51.816;8.662;2024-02-28T14:00:17;41.53;;;19.70;;
21168;SDS011;10742;51.816;8.662;2024-02-28T14:03:39;48.33;;;21.60;;
21168;SDS011;10742;51.816;8.662;2024-02-28T14:07:02;44.30;;;20.87;;
21168;SDS011;10742;51.816;8.662;2024-02-28T14:10:24;43.07;;;19.00;;
21168;SDS011;10742;51.816;8.662;2024-02-28T14:13:46;42.70;;;19.83;;
21168;SDS011;10742;51.816;8.662;2024-02-28T14:17:07;41.20;;;19.37;;
21168;SDS011;10742;51.816;8.662;2024-02-28T14:20:28;41.73;;;19.83;;
21168;SDS011;10742;51.816;8.662;2024-02-28T14:23:50;42.60;;;20.87;;
21168;SDS011;10742;51.816;8.662;2024-02-28T14:27:12;41.47;;;19.37;;
21168;SDS011;10742;51.816;8.662;2024-02-28T14:30:34;48.37;;;19.67;;
21168;SDS011;10742;51.816;8.662;2024-02-28T14:33:55;41.03;;;19.77;;
21168;SDS011;10742;51.816;8.662;2024-02-28T14:37:18;42.47;;;19.83;;
21168;SDS011;10742;51.816;8.662;2024-02-28T14:40:39;41.73;;;19.57;;
21168;SDS011;10742;51.816;8.662;2024-02-28T14:44:01;37.37;;;17.43;;
21168;SDS011;10742;51.816;8.662;2024-02-28T14:47:22;41.50;;;19.20;;
21168;SDS011;10742;51.816;8.662;2024-02-28T14:50:43;40.97;;;20.33;;
21168;SDS011;10742;51.816;8.662;2024-02-28T14:54:05;42.50;;;20.07;;
21168;SDS011;10742;51.816;8.662;2024-02-28T14:57:27;41.93;;;19.30;;
21168;SDS011;10742;51.816;8.662;2024-02-28T15:00:48;44.77;;;19.40;;
21168;SDS011;10742;51.816;8.662;2024-02-28T15:04:10;39.23;;;18.97;;
21168;SDS011;10742;51.816;8.662;2024-02-28T15:07:34;39.53;;;18.47;;
21168;SDS011;10742;51.816;8.662;2024-02-28T15:10:56;39.20;;;18.83;;
21168;SDS011;10742;51.816;8.662;2024-02-28T15:14:18;40.67;;;18.70;;
21168;SDS011;10742;51.816;8.662;2024-02-28T15:17:39;45.93;;;19.27;;
21168;SDS011;10742;51.816;8.662;2024-02-28T15:21:01;39.73;;;17.73;;
21168;SDS011;10742;51.816;8.662;2024-02-28T15:24:22;40.97;;;19.60;;
21168;SDS011;10742;51.816;8.662;2024-02-28T15:27:44;42.17;;;19.73;;
21168;SDS011;10742;51.816;8.662;2024-02-28T15:31:05;41.43;;;19.50;;
21168;SDS011;10742;51.816;8.662;2024-02-28T15:34:27;39.73;;;19.03;;
21168;SDS011;10742;51.816;8.662;2024-02-28T15:37:48;41.43;;;18.83;;
21168;SDS011;10742;51.816;8.662;2024-02-28T15:41:10;39.70;;;18.43;;
21168;SDS011;10742;51.816;8.662;2024-02-28T15:44:31;40.27;;;18.37;;
21168;SDS011;10742;51.816;8.662;2024-02-28T15:47:53;42.77;;;19.43;;
21168;SDS011;10742;51.816;8.662;2024-02-28T15:51:14;42.93;;;20.00;;
21168;SDS011;10742;51.816;8.662;2024-02-28T15:54:38;43.13;;;19.40;;
21168;SDS011;10742;51.816;8.662;2024-02-28T15:58:00;39.20;;;18.67;;
21168;SDS011;10742;51.816;8.662;2024-02-28T16:01:22;42.93;;;19.13;;
21168;SDS011;10742;51.816;8.662;2024-02-28T16:04:43;45.57;;;19.17;;
21168;SDS011;10742;51.816;8.662;2024-02-28T16:08:05;43.67;;;18.33;;
21168;SDS011;10742;51.816;8.662;2024-02-28T16:11:26;40.53;;;19.67;;
21168;SDS011;10742;51.816;8.662;2024-02-28T16:14:48;40.57;;;19.40;;
21168;SDS011;10742;51.816;8.662;2024-02-28T16:18:09;41.87;;;19.17;;
21168;SDS011;10742;51.816;8.662;2024-02-28T16:21:31;39.97;;;19.40;;
21168;SDS011;10742;51.816;8.662;2024-02-28T16:24:52;41.67;;;19.37;;
21168;SDS011;10742;51.816;8.662;2024-02-28T16:28:13;44.57;;;20.37;;
21168;SDS011;10742;51.816;8.662;2024-02-28T16:31:34;42.83;;;19.17;;
21168;SDS011;10742;51.816;8.662;2024-02-28T16:34:56;43.00;;;19.03;;
21168;SDS011;10742;51.816;8.662;2024-02-28T16:38:18;44.53;;;18.13;;
21168;SDS011;10742;51.816;8.662;2024-02-28T16:41:39;41.33;;;18.73;;
21168;SDS011;10742;51.816;8.662;2024-02-28T16:45:00;39.87;;;19.67;;
21168;SDS011;10742;51.816;8.662;2024-02-28T16:48:23;42.33;;;20.57;;
21168;SDS011;10742;51.816;8.662;2024-02-28T16:51:44;150.17;;;38.37;;
21168;SDS011;10742;51.816;8.662;2024-02-28T16:55:06;58.10;;;24.87;;
21168;SDS011;10742;51.816;8.662;2024-02-28T16:58:28;48.33;;;22.57;;
21168;SDS011;10742;51.816;8.662;2024-02-28T17:01:51;42.23;;;19.60;;
21168;SDS011;10742;51.816;8.662;2024-02-28T17:05:13;40.83;;;18.63;;
21168;SDS011;10742;51.816;8.662;2024-02-28T17:08:34;43.37;;;19.43;;
21168;SDS011;10742;51.816;8.662;2024-02-28T17:11:55;42.20;;;19.83;;
21168;SDS011;10742;51.816;8.662;2024-02-28T17:15:17;42.30;;;19.13;;
21168;SDS011;10742;51.816;8.662;2024-02-28T17:18:38;43.90;;;21.23;;
21168;SDS011;10742;51.816;8.662;2024-02-28T17:21:59;41.70;;;19.60;;
21168;SDS011;10742;51.816;8.662;2024-02-28T17:25:21;43.73;;;19.53;;
21168;SDS011;10742;51.816;8.662;2024-02-28T17:28:42;40.77;;;19.27;;
21168;SDS011;10742;51.816;8.662;2024-02-28T17:32:04;41.60;;;19.47;;
21168;SDS011;10742;51.816;8.662;2024-02-28T17:35:25;41.97;;;20.30;;
21168;SDS011;10742;51.816;8.662;2024-02-28T17:38:49;44.53;;;20.47;;
21168;SDS011;10742;51.816;8.662;2024-02-28T17:42:11;45.33;;;21.43;;
21168;SDS011;10742;51.816;8.662;2024-02-28T17:45:32;45.30;;;20.67;;
21168;SDS011;10742;51.816;8.662;2024-02-28T17:48:53;46.60;;;21.57;;
21168;SDS011;10742;51.816;8.662;2024-02-28T17:52:16;49.23;;;22.60;;
21168;SDS011;10742;51.816;8.662;2024-02-28T17:55:37;47.57;;;21.43;;
21168;SDS011;10742;51.816;8.662;2024-02-28T17:58:59;43.93;;;20.47;;
21168;SDS011;10742;51.816;8.662;2024-02-28T18:02:20;44.17;;;19.73;;
21168;SDS011;10742;51.816;8.662;2024-02-28T18:05:41;42.00;;;18.37;;
21168;SDS011;10742;51.816;8.662;2024-02-28T18:09:02;40.77;;;18.83;;
21168;SDS011;10742;51.816;8.662;2024-02-28T18:12:25;41.93;;;18.90;;
21168;SDS011;10742;51.816;8.662;2024-02-28T18:15:47;41.97;;;19.53;;
21168;SDS011;10742;51.816;8.662;2024-02-28T18:19:09;41.57;;;18.07;;
21168;SDS011;10742;51.816;8.662;2024-02-28T18:22:30;44.33;;;19.50;;
21168;SDS011;10742;51.816;8.662;2024-02-28T18:25:51;40.87;;;18.77;;
21168;SDS011;10742;51.816;8.662;2024-02-28T18:29:13;41.87;;;19.63;;
21168;SDS011;10742;51.816;8.662;2024-02-28T18:32:34;45.13;;;19.10;;
21168;SDS011;10742;51.816;8.662;2024-02-28T18:35:55;41.50;;;19.40;;
21168;SDS011;10742;51.816;8.662;2024-02-28T18:39:19;39.30;;;18.90;;
21168;SDS011;10742;51.816;8.662;2024-02-28T18:42:42;43.90;;;19.77;;
21168;SDS011;10742;51.816;8.662;2024-02-28T18:46:03;40.77;;;19.47;;
21168;SDS011;10742;51.816;8.662;2024-02-28T18:49:25;43.03;;;20.17;;
21168;SDS011;10742;51.816;8.662;2024-02-28T18:52:46;42.23;;;19.67;;
21168;SDS011;10742;51.816;8.662;2024-02-28T18:56:07;43.30;;;20.10;;
21168;SDS011;10742;51.816;8.662;2024-02-28T18:59:29;45.07;;;20.27;;
21168;SDS011;10742;51.816;8.662;2024-02-28T19:02:51;44.17;;;21.40;;
21168;SDS011;10742;51.816;8.662;2024-02-28T19:06:13;45.47;;;20.37;;
21168;SDS011;10742;51.816;8.662;2024-02-28T19:09:35;44.53;;;20.77;;
21168;SDS011;10742;51.816;8.662;2024-02-28T19:12:58;48.27;;;22.20;;
21168;SDS011;10742;51.816;8.662;2024-02-28T19:16:19;43.87;;;20.13;;
21168;SDS011;10742;51.816;8.662;2024-02-28T19:19:41;40.37;;;18.67;;
21168;SDS011;10742;51.816;8.662;2024-02-28T19:23:02;41.93;;;19.07;;
21168;SDS011;10742;51.816;8.662;2024-02-28T19:26:24;44.80;;;18.80;;
21168;SDS011;10742;51.816;8.662;2024-02-28T19:29:45;45.40;;;20.30;;
21168;SDS011;10742;51.816;8.662;2024-02-28T19:33:07;45.03;;;21.20;;
21168;SDS011;10742;51.816;8.662;2024-02-28T19:36:28;43.60;;;20.33;;
21168;SDS011;10742;51.816;8.662;2024-02-28T19:39:50;45.77;;;20.17;;